Time;durP1;ratioP1;P1;durP2;ratioP2;P2;SDS_P1;SDS_P2;PMS_P1;PMS_P2;Temp;Humidity;BMP_temperature;BMP_pressure;BME280_temperature;BME280_humidity;BME280_pressure;Samples;Min_cycle;Max_cycle;Signal;HPM_P1;HPM_P2
2020/12/26 00:02:21;;;;;;;8.38;7.28;;;;;;;;;;5053396;28;20918;-74
2020/12/26 00:04:47;;;;;;;9.23;7.70;;;;;;;;;;5053566;28;20381;-74
2020/12/26 00:07:13;;;;;;;8.88;7.15;;;;;;;;;;5053265;28;20385;-74
2020/12/26 00:09:39;;;;;;;9.70;7.07;;;;;;;;;;5053401;28;20400;-74
2020/12/26 00:12:05;;;;;;;7.82;6.70;;;1.00;99.90;;;;;;5053238;28;20377;-75
2020/12/26 00:14:31;;;;;;;9.10;7.20;;;;;;;;;;5052561;28;20895;-75
2020/12/26 00:16:57;;;;;;;7.78;6.97;;;0.60;99.90;;;;;;5052081;28;20373;-74
2020/12/26 00:19:24;;;;;;;8.57;7.07;;;1.10;99.90;;;;;;5052142;28;20875;-73
2020/12/26 00:21:51;;;;;;;7.60;6.80;;;0.80;99.90;;;;;;5052100;28;20381;-71
2020/12/26 00:24:17;;;;;;;8.95;6.70;;;;;;;;;;5051778;28;20389;-73
2020/12/26 00:26:43;;;;;;;9.13;6.78;;;;;;;;;;5051975;28;20378;-73
2020/12/26 00:29:09;;;;;;;8.47;6.67;;;;;;;;;;5051884;28;20443;-73
2020/12/26 00:31:35;;;;;;;8.77;6.03;;;1.70;99.90;;;;;;5051860;28;20388;-73
2020/12/26 00:34:01;;;;;;;7.75;5.88;;;;;;;;;;5051200;28;20449;-73
2020/12/26 00:36:27;;;;;;;7.50;6.00;;;;;;;;;;5062455;28;20380;-74
2020/12/26 00:38:53;;;;;;;9.63;6.22;;;;;;;;;;5071761;28;20386;-74
2020/12/26 00:41:19;;;;;;;7.78;6.28;;;;;;;;;;5066178;28;20443;-74
2020/12/26 00:43:45;;;;;;;7.57;6.10;;;;;;;;;;5051487;28;20381;-76
2020/12/26 00:46:12;;;;;;;8.98;6.65;;;;;;;;;;5051787;28;20381;-76
2020/12/26 00:48:38;;;;;;;8.30;6.28;;;;;;;;;;5051624;28;20373;-76
2020/12/26 00:51:04;;;;;;;7.90;6.43;;;;;;;;;;5051679;28;20377;-76
2020/12/26 00:53:30;;;;;;;8.63;6.15;;;;;;;;;;5051340;28;20439;-76
2020/12/26 00:55:56;;;;;;;8.25;6.30;;;;;;;;;;5051493;28;20410;-76
2020/12/26 00:58:22;;;;;;;9.47;6.27;;;;;;;;;;5051443;28;20418;-75
2020/12/26 01:00:48;;;;;;;8.25;6.50;;;;;;;;;;5051266;28;20411;-75
2020/12/26 01:03:14;;;;;;;8.98;6.38;;;;;;;;;;5051164;28;20439;-76
2020/12/26 01:05:42;;;;;;;9.13;6.90;;;0.90;99.90;;;;;;5051388;28;20389;-76
2020/12/26 01:08:08;;;;;;;8.10;6.40;;;;;;;;;;5050857;28;20389;-76
2020/12/26 01:10:34;;;;;;;9.17;6.30;;;;;;;;;;5063002;28;20441;-73
2020/12/26 01:13:00;;;;;;;9.20;7.07;;;;;;;;;;5070956;28;20855;-73
2020/12/26 01:15:26;;;;;;;8.93;6.77;;;;;;;;;;5027237;28;1259679;-73
2020/12/26 01:17:52;;;;;;;9.55;6.50;;;;;;;;;;5072154;28;20385;-73
2020/12/26 01:20:18;;;;;;;8.60;6.40;;;;;;;;;;5072216;28;20372;-72
2020/12/26 01:22:44;;;;;;;7.57;6.40;;;0.80;99.90;;;;;;5071787;28;20386;-74
2020/12/26 01:25:11;;;;;;;8.35;6.90;;;0.40;99.90;;;;;;5072107;28;20388;-74
2020/12/26 01:27:37;;;;;;;9.87;7.13;;;;;;;;;;5071800;28;20398;-75
2020/12/26 01:30:03;;;;;;;9.52;6.82;;;0.10;99.90;;;;;;5072051;28;20383;-74
2020/12/26 01:32:29;;;;;;;8.15;7.05;;;0.10;99.90;;;;;;5071641;28;20380;-74
2020/12/26 01:34:59;;;;;;;9.93;6.77;;;;;;;;;;5066382;28;20412;-75
2020/12/26 01:37:25;;;;;;;9.73;6.80;;;;;;;;;;5051738;28;20385;-74
2020/12/26 01:39:51;;;;;;;9.40;7.33;;;;;;;;;;5051776;28;20374;-74
2020/12/26 01:42:17;;;;;;;9.80;7.80;;;;;;;;;;5051659;28;20768;-75
2020/12/26 01:44:43;;;;;;;9.23;7.57;;;;;;;;;;5050805;28;20385;-74
2020/12/26 01:47:09;;;;;;;9.40;6.70;;;;;;;;;;5051647;28;20855;-74
2020/12/26 01:49:36;;;;;;;8.43;7.13;;;;;;;;;;5051569;28;20383;-74
2020/12/26 01:52:02;;;;;;;8.73;7.20;;;-0.10;99.90;;;;;;5051443;28;20381;-73
2020/12/26 01:54:28;;;;;;;9.70;7.28;;;-0.10;99.90;;;;;;5051290;28;20408;-73
2020/12/26 01:56:55;;;;;;;10.18;7.10;;;-0.30;99.90;;;;;;5051391;28;20381;-73
2020/12/26 01:59:21;;;;;;;8.98;6.95;;;;;;;;;;5051460;28;20966;-73
2020/12/26 02:01:49;;;;;;;9.20;7.30;;;;;;;;;;5051373;28;20472;-73
2020/12/26 02:04:15;;;;;;;8.95;7.38;;;;;;;;;;5051410;28;20380;-73
2020/12/26 02:06:49;;;;;;;9.13;6.85;;;-0.40;99.90;;;;;;5051225;28;20389;-73
2020/12/26 02:09:15;;;;;;;9.73;7.20;;;;;;;;;;5051233;28;20460;-73
2020/12/26 02:11:41;;;;;;;10.97;7.43;;;-0.40;99.90;;;;;;5051254;28;20468;-73
2020/12/26 02:14:07;;;;;;;9.50;7.50;;;-0.40;99.90;;;;;;5049520;28;20485;-73
2020/12/26 02:16:46;;;;;;;10.05;7.60;;;;;;;;;;5051036;28;20385;-73
2020/12/26 02:19:12;;;;;;;10.13;7.68;;;-0.50;99.90;;;;;;5051075;28;20460;-72
2020/12/26 02:21:42;;;;;;;8.80;7.47;;;;;;;;;;5050876;28;20427;-73
2020/12/26 02:24:08;;;;;;;9.80;7.20;;;;;;;;;;5050785;28;20390;-74
2020/12/26 02:26:34;;;;;;;10.77;7.83;;;;;;;;;;5050850;28;20808;-73
2020/12/26 02:29:01;;;;;;;10.65;7.95;;;;;;;;;;5051206;28;20385;-73
2020/12/26 02:31:26;;;;;;;10.93;7.70;;;-0.60;99.90;;;;;;5050862;28;20422;-74
2020/12/26 02:33:52;;;;;;;9.82;7.60;;;;;;;;;;5050509;28;20413;-75
2020/12/26 02:36:19;;;;;;;9.77;7.80;;;;;;;;;;5050578;28;20381;-74
2020/12/26 02:38:44;;;;;;;11.00;8.20;;;;;;;;;;5050768;28;20409;-74
2020/12/26 02:41:11;;;;;;;12.75;8.40;;;;;;;;;;5050549;28;20389;-73
2020/12/26 02:43:37;;;;;;;10.40;8.65;;;;;;;;;;5050409;28;20409;-74
2020/12/26 02:46:03;;;;;;;11.00;9.07;;;;;;;;;;5050678;28;20841;-73
2020/12/26 02:48:29;;;;;;;11.63;9.45;;;;;;;;;;5050827;28;20916;-73
2020/12/26 02:50:55;;;;;;;9.75;8.75;;;-0.30;99.90;;;;;;5050452;28;20396;-73
2020/12/26 02:53:21;;;;;;;10.18;9.00;;;;;;;;;;5050349;28;20430;-74
2020/12/26 02:55:47;;;;;;;10.48;8.38;;;;;;;;;;5050309;28;20413;-74
2020/12/26 02:58:13;;;;;;;10.82;9.02;;;;;;;;;;5050735;28;20378;-72
2020/12/26 03:00:39;;;;;;;10.32;9.20;;;;;;;;;;5050545;28;20386;-73
2020/12/26 03:03:05;;;;;;;10.45;9.35;;;;;;;;;;5050250;28;20380;-73
2020/12/26 03:05:31;;;;;;;11.70;9.87;;;;;;;;;;5050264;28;20381;-73
2020/12/26 03:07:57;;;;;;;10.55;9.27;;;;;;;;;;5050412;28;20764;-73
2020/12/26 03:10:23;;;;;;;10.83;9.67;;;;;;;;;;5050536;28;21087;-73
2020/12/26 03:12:49;;;;;;;12.48;10.13;;;;;;;;;;5050241;28;20744;-73
2020/12/26 03:15:15;;;;;;;11.37;9.57;;;;;;;;;;5050195;28;20413;-73
2020/12/26 03:17:40;;;;;;;11.25;10.00;;;-1.10;99.90;;;;;;5050329;28;20377;-73
2020/12/26 03:20:06;;;;;;;11.90;10.23;;;-1.20;99.90;;;;;;5050169;28;20952;-73
2020/12/26 03:22:32;;;;;;;11.80;10.10;;;-1.00;99.90;;;;;;5050134;28;20460;-74
2020/12/26 03:24:58;;;;;;;11.73;10.27;;;;;;;;;;5052016;28;20476;-73
2020/12/26 03:27:25;;;;;;;11.73;9.95;;;;;;;;;;5061456;28;20388;-73
2020/12/26 03:29:51;;;;;;;12.20;10.00;;;-1.10;99.90;;;;;;5059941;28;20427;-73
2020/12/26 03:32:17;;;;;;;11.57;10.38;;;;;;;;;;5058826;28;20396;-73
2020/12/26 03:34:44;;;;;;;12.10;10.27;;;;;;;;;;5058161;28;21197;-73
2020/12/26 03:37:09;;;;;;;11.77;9.93;;;-1.60;99.90;;;;;;5060970;28;20837;-73
2020/12/26 03:39:38;;;;;;;11.80;10.10;;;-0.70;99.90;;;;;;5061015;28;20417;-73
2020/12/26 03:42:05;;;;;;;11.50;10.30;;;;;;;;;;5061058;28;20438;-74
2020/12/26 03:44:30;;;;;;;12.30;10.32;;;-1.30;99.90;;;;;;5061514;28;20389;-73
2020/12/26 03:46:57;;;;;;;13.35;11.38;;;;;;;;;;5065786;28;20392;-74
2020/12/26 03:49:23;;;;;;;11.55;9.85;;;-1.70;99.90;;;;;;5057863;28;20404;-74
2020/12/26 03:51:50;;;;;;;12.52;10.93;;;;;;;;;;5049440;28;20392;-73
2020/12/26 03:54:16;;;;;;;12.00;10.27;;;;;;;;;;5060162;28;20736;-72
2020/12/26 03:56:42;;;;;;;12.25;10.70;;;;;;;;;;5063777;28;20387;-73
2020/12/26 03:59:08;;;;;;;13.20;10.68;;;-1.50;99.90;;;;;;5061460;28;20372;-73
2020/12/26 04:01:34;;;;;;;12.40;10.57;;;;;;;;;;5061579;28;20471;-73
2020/12/26 04:03:59;;;;;;;12.20;10.15;;;-1.50;99.90;;;;;;5060002;28;20738;-74
2020/12/26 04:06:25;;;;;;;13.70;10.47;;;;;;;;;;5061237;28;20388;-73
2020/12/26 04:08:51;;;;;;;13.73;10.38;;;;;;;;;;5061079;28;20465;-73
2020/12/26 04:11:18;;;;;;;11.80;10.50;;;-1.30;99.90;;;;;;5065197;28;20876;-73
2020/12/26 04:13:44;;;;;;;11.68;10.48;;;-1.70;99.90;;;;;;5063908;28;20386;-73
2020/12/26 04:16:11;;;;;;;12.05;10.02;;;;;;;;;;5065006;28;20476;-73
2020/12/26 04:18:37;;;;;;;13.65;10.60;;;;;;;;;;5063584;28;20440;-74
2020/12/26 04:21:03;;;;;;;11.90;10.20;;;;;;;;;;5064738;28;20881;-73
2020/12/26 04:23:29;;;;;;;13.25;11.30;;;;;;;;;;5063298;28;20465;-73
2020/12/26 04:25:55;;;;;;;12.27;10.98;;;;;;;;;;5068918;28;20379;-74
2020/12/26 04:28:21;;;;;;;13.57;12.02;;;;;;;;;;5062910;28;20456;-74
2020/12/26 04:30:46;;;;;;;13.70;12.07;;;-1.40;99.90;;;;;;5067844;28;20445;-74
2020/12/26 04:33:12;;;;;;;15.77;13.10;;;;;;;;;;5061009;28;20450;-75
2020/12/26 04:35:38;;;;;;;15.65;13.02;;;-1.60;99.90;;;;;;5065998;28;20412;-74
2020/12/26 04:38:04;;;;;;;14.68;13.10;;;;;;;;;;5062960;28;20395;-75
2020/12/26 04:40:30;;;;;;;14.52;12.52;;;;;;;;;;5064651;28;20383;-75
2020/12/26 04:42:58;;;;;;;14.27;12.48;;;-1.50;99.90;;;;;;5061660;28;20389;-74
2020/12/26 04:45:24;;;;;;;14.30;12.57;;;;;;;;;;5066997;28;20387;-74
2020/12/26 04:47:54;;;;;;;14.90;13.30;;;;;;;;;;5064237;28;20398;-75
2020/12/26 04:50:26;;;;;;;14.02;12.52;;;;;;;;;;5064577;28;20390;-75
2020/12/26 04:52:56;;;;;;;14.30;12.75;;;;;;;;;;5062833;28;20453;-75
2020/12/26 04:55:24;;;;;;;15.25;13.05;;;;;;;;;;5064315;28;20429;-74
2020/12/26 04:57:51;;;;;;;14.00;12.50;;;;;;;;;;5059979;28;20389;-74
2020/12/26 05:00:19;;;;;;;14.80;13.03;;;-1.80;99.90;;;;;;5067177;28;20472;-74
2020/12/26 05:02:51;;;;;;;19.40;14.77;;;-1.60;99.90;;;;;;5061185;28;20374;-74
2020/12/26 05:05:16;;;;;;;18.20;14.43;;;-1.80;99.90;;;;;;5066212;28;20381;-74
2020/12/26 05:07:42;;;;;;;15.80;13.40;;;;;;;;;;5060713;28;20385;-74
2020/12/26 05:10:08;;;;;;;15.15;12.88;;;;;;;;;;5065956;28;20397;-74
2020/12/26 05:12:34;;;;;;;14.00;12.27;;;;;;;;;;5067125;28;20387;-75
2020/12/26 05:15:02;;;;;;;13.63;12.02;;;-1.80;99.90;;;;;;5060844;28;21098;-74
2020/12/26 05:17:27;;;;;;;16.77;13.50;;;-1.80;99.90;;;;;;5065359;28;20375;-74
2020/12/26 05:19:53;;;;;;;15.57;12.13;;;;;;;;;;5065724;28;21010;-73
2020/12/26 05:22:19;;;;;;;15.02;13.40;;;-1.60;99.90;;;;;;5059987;28;20854;-74
2020/12/26 05:24:51;;;;;;;16.00;13.63;;;-2.00;99.90;;;;;;5054788;28;20408;-76
2020/12/26 05:27:17;;;;;;;14.80;12.70;;;;;;;;;;5052076;28;20385;-75
2020/12/26 05:29:43;;;;;;;15.27;12.90;;;-1.70;99.90;;;;;;5052018;28;20794;-74
2020/12/26 05:32:14;;;;;;;16.10;14.18;;;;;;;;;;5060986;28;20411;-74
2020/12/26 05:34:40;;;;;;;15.98;12.73;;;-1.70;99.90;;;;;;5068716;28;20486;-74
2020/12/26 05:37:06;;;;;;;16.40;14.18;;;-1.60;99.90;;;;;;5052065;28;20405;-74
2020/12/26 05:39:33;;;;;;;18.17;14.25;;;-1.70;99.90;;;;;;5051720;28;20388;-75
2020/12/26 05:41:59;;;;;;;16.45;14.07;;;;;;;;;;5051753;28;20416;-76
2020/12/26 05:44:30;;;;;;;17.30;13.82;;;;;;;;;;5051719;28;20386;-75
2020/12/26 05:46:59;;;;;;;15.13;12.93;;;;;;;;;;5051891;28;20378;-75
2020/12/26 05:49:25;;;;;;;16.48;13.48;;;;;;;;;;5051758;28;20382;-76
2020/12/26 05:51:56;;;;;;;15.75;12.68;;;-1.30;99.90;;;;;;5051785;28;20407;-76
2020/12/26 05:54:23;;;;;;;15.02;12.73;;;-1.50;99.90;;;;;;5051343;28;20409;-76
2020/12/26 05:56:49;;;;;;;16.67;13.77;;;;;;;;;;5051598;28;20388;-76
2020/12/26 05:59:25;;;;;;;15.48;12.70;;;-1.50;99.90;;;;;;5051558;28;20435;-76
2020/12/26 06:01:52;;;;;;;16.83;14.40;;;;;;;;;;5051329;28;20377;-75
2020/12/26 06:04:20;;;;;;;14.33;12.70;;;;;;;;;;5051275;28;21001;-76
2020/12/26 06:06:50;;;;;;;13.13;11.18;;;;;;;;;;5051219;28;20400;-75
2020/12/26 06:09:18;;;;;;;11.95;10.75;;;-0.90;99.90;;;;;;5051607;28;20457;-75
2020/12/26 06:11:44;;;;;;;14.60;10.93;;;;;;;;;;5051196;28;20466;-75
2020/12/26 06:14:12;;;;;;;15.57;12.65;;;-0.60;99.90;;;;;;5050987;28;20929;-75
2020/12/26 06:16:43;;;;;;;14.23;11.50;;;-1.30;99.90;;;;;;5051167;28;20879;-75
2020/12/26 06:19:10;;;;;;;15.73;11.23;;;;;;;;;;5051277;28;20740;-75
2020/12/26 06:21:36;;;;;;;16.43;12.83;;;;;;;;;;5049875;28;20477;-74
2020/12/26 06:24:02;;;;;;;15.68;12.27;;;;;;;;;;5051146;28;20472;-74
2020/12/26 06:26:34;;;;;;;14.50;12.98;;;;;;;;;;5050514;28;20385;-73
2020/12/26 06:29:02;;;;;;;14.88;12.77;;;;;;;;;;5052057;28;20373;-74
2020/12/26 06:31:29;;;;;;;17.40;13.40;;;-1.40;99.90;;;;;;5053681;28;20380;-73
2020/12/26 06:33:55;;;;;;;15.60;12.90;;;;;;;;;;5060854;28;20381;-73
2020/12/26 06:36:22;;;;;;;16.55;13.50;;;-1.40;99.90;;;;;;5041204;28;20380;-73
2020/12/26 06:38:47;;;;;;;16.17;13.43;;;-1.40;99.90;;;;;;5060368;28;20378;-73
2020/12/26 06:41:19;;;;;;;15.33;13.10;;;-1.40;99.90;;;;;;5053324;28;20891;-73
2020/12/26 06:43:55;;;;;;;15.45;13.20;;;-0.70;99.90;;;;;;5051087;28;20381;-74
2020/12/26 06:46:21;;;;;;;16.58;14.30;;;;;;;;;;5054286;28;20381;-75
2020/12/26 06:48:51;;;;;;;15.60;13.65;;;;;;;;;;5050646;28;20373;-73
2020/12/26 06:51:24;;;;;;;18.33;14.57;;;-1.40;99.90;;;;;;5052785;28;20392;-74
2020/12/26 06:53:50;;;;;;;22.05;16.70;;;-1.20;99.90;;;;;;5050805;28;20388;-74
2020/12/26 06:56:34;;;;;;;18.58;14.13;;;;;;;;;;5057714;28;20438;-74
2020/12/26 06:59:07;;;;;;;44.37;32.60;;;;;;;;;;5070850;28;20383;-75
2020/12/26 07:01:35;;;;;;;19.73;17.63;;;-1.20;99.90;;;;;;5060535;28;20420;-73
2020/12/26 07:04:21;;;;;;;20.38;15.80;;;;;;;;;;5050546;28;20386;-74
2020/12/26 07:06:49;;;;;;;17.58;13.52;;;-1.10;99.90;;;;;;5050596;28;20909;-72
2020/12/26 07:09:17;;;;;;;17.07;13.53;;;-1.40;99.90;;;;;;5050676;28;20427;-74
2020/12/26 07:11:53;;;;;;;17.92;14.50;;;-1.20;99.90;;;;;;5050752;28;20381;-74
2020/12/26 07:14:35;;;;;;;18.23;14.20;;;-1.30;99.90;;;;;;5050612;28;20441;-73
2020/12/26 07:17:25;;;;;;;18.27;14.40;;;-1.00;99.90;;;;;;5067966;28;20809;-73
2020/12/26 07:19:52;;;;;;;16.73;14.43;;;;;;;;;;5070367;28;20449;-73
2020/12/26 07:22:28;;;;;;;19.60;15.05;;;;;;;;;;5063694;28;20377;-74
2020/12/26 07:24:56;;;;;;;18.05;14.50;;;;;;;;;;5050983;28;20934;-73
2020/12/26 07:27:24;;;;;;;16.05;13.05;;;;;;;;;;5051030;28;20413;-74
2020/12/26 07:29:58;;;;;;;17.25;13.07;;;-1.10;99.90;;;;;;5050519;28;20385;-73
2020/12/26 07:32:39;;;;;;;19.63;16.42;;;;;;;;;;5050623;28;20937;-74
2020/12/26 07:35:14;;;;;;;17.95;13.85;;;-0.90;99.90;;;;;;5051804;28;20413;-73
2020/12/26 07:37:40;;;;;;;16.08;13.43;;;;;;;;;;5049943;28;20377;-74
2020/12/26 07:40:07;;;;;;;15.88;13.52;;;-0.50;99.90;;;;;;5050031;28;20389;-73
2020/12/26 07:42:33;;;;;;;28.95;23.38;;;-1.40;99.90;;;;;;5049680;28;20394;-74
2020/12/26 07:45:07;;;;;;;37.13;26.95;;;-1.00;99.90;;;;;;5053829;28;20420;-73
2020/12/26 07:47:33;;;;;;;28.58;21.73;;;;;;;;;;5053563;28;20391;-73
2020/12/26 07:49:59;;;;;;;53.47;41.65;;;;;;;;;;5053416;28;20413;-73
2020/12/26 07:52:25;;;;;;;33.08;23.73;;;;;;;;;;5053439;28;20830;-73
2020/12/26 07:55:00;;;;;;;32.88;23.63;;;-1.10;99.90;;;;;;5053652;28;20404;-73
2020/12/26 07:57:27;;;;;;;29.25;22.40;;;;;;;;;;5053941;28;20456;-73
2020/12/26 07:59:53;;;;;;;21.15;18.65;;;;;;;;;;5053560;28;20381;-74
2020/12/26 08:02:19;;;;;;;23.38;18.40;;;;;;;;;;5053413;28;20374;-75
2020/12/26 08:04:45;;;;;;;19.40;15.85;;;;;;;;;;5053872;28;20386;-75
2020/12/26 08:07:12;;;;;;;18.50;15.73;;;-0.70;99.90;;;;;;5057217;28;20380;-73
2020/12/26 08:09:38;;;;;;;18.73;15.63;;;-0.90;99.90;;;;;;5073446;28;20388;-74
2020/12/26 08:12:07;;;;;;;19.93;16.20;;;;;;;;;;5073584;28;20441;-74
2020/12/26 08:14:33;;;;;;;22.40;18.40;;;-1.30;99.90;;;;;;5073385;28;20411;-72
2020/12/26 08:16:59;;;;;;;25.10;20.92;;;;;;;;;;5073132;28;20379;-72
2020/12/26 08:19:26;;;;;;;20.20;16.38;;;-0.70;99.90;;;;;;5073505;28;20410;-72
2020/12/26 08:21:57;;;;;;;19.10;15.85;;;;;;;;;;5073328;28;20854;-72
2020/12/26 08:24:23;;;;;;;21.77;16.52;;;;;;;;;;5073066;28;20388;-71
2020/12/26 08:26:50;;;;;;;19.67;16.90;;;;;;;;;;5072896;28;20390;-72
2020/12/26 08:29:16;;;;;;;20.42;17.10;;;-0.90;99.90;;;;;;5073001;28;20858;-72
2020/12/26 08:31:45;;;;;;;18.83;15.73;;;-0.60;99.90;;;;;;5072757;28;20383;-72
2020/12/26 08:34:17;;;;;;;19.50;16.02;;;;;;;;;;5072683;28;20380;-71
2020/12/26 08:36:59;;;;;;;23.08;17.35;;;-0.70;99.90;;;;;;5039439;28;20377;-71
2020/12/26 08:39:26;;;;;;;21.45;17.38;;;;;;;;;;5052779;28;20401;-71
2020/12/26 08:41:53;;;;;;;19.33;15.30;;;-1.10;99.90;;;;;;5052649;28;20378;-72
2020/12/26 08:44:19;;;;;;;20.67;16.00;;;;;;;;;;5052579;28;20381;-71
2020/12/26 08:46:46;;;;;;;19.03;15.97;;;;;;;;;;5052642;28;20404;-71
2020/12/26 08:49:13;;;;;;;18.85;15.02;;;;;;;;;;5052334;28;20709;-72
2020/12/26 08:51:43;;;;;;;17.92;15.02;;;;;;;;;;5052033;28;20717;-72
2020/12/26 08:54:24;;;;;;;17.83;14.50;;;;;;;;;;5055568;28;20372;-70
2020/12/26 08:56:50;;;;;;;18.35;15.55;;;;;;;;;;5072427;28;20403;-74
2020/12/26 08:59:29;;;;;;;20.98;15.95;;;;;;;;;;5072572;28;20387;-72
2020/12/26 09:01:55;;;;;;;22.60;17.15;;;;;;;;;;5072364;28;20434;-74
2020/12/26 09:04:21;;;;;;;18.15;15.63;;;0.30;99.90;;;;;;5072316;28;20862;-73
2020/12/26 09:06:47;;;;;;;21.05;15.32;;;0.40;99.90;;;;;;5072352;28;20954;-74
2020/12/26 09:09:14;;;;;;;19.98;14.93;;;;;;;;;;5072376;28;20415;-75
2020/12/26 09:11:40;;;;;;;17.73;14.90;;;0.00;99.90;;;;;;5070880;28;20463;-71
2020/12/26 09:14:15;;;;;;;20.35;16.02;;;;;;;;;;5071833;28;20823;-73
2020/12/26 09:16:41;;;;;;;21.75;16.50;;;;;;;;;;5071885;28;20441;-71
2020/12/26 09:19:07;;;;;;;21.92;16.52;;;;;;;;;;5072220;28;20372;-70
2020/12/26 09:21:34;;;;;;;21.00;16.13;;;;;;;;;;5072068;28;21018;-73
2020/12/26 09:23:59;;;;;;;24.25;18.15;;;0.50;99.90;;;;;;5071725;28;20861;-74
2020/12/26 09:26:36;;;;;;;20.50;16.83;;;;;;;;;;5071849;28;20403;-75
2020/12/26 09:29:03;;;;;;;25.30;19.00;;;;;;;;;;5072128;28;20380;-73
2020/12/26 09:31:30;;;;;;;24.60;18.80;;;;;;;;;;5071917;28;20380;-73
2020/12/26 09:33:58;;;;;;;19.58;17.10;;;0.70;99.90;;;;;;5070405;28;20375;-73
2020/12/26 09:36:25;;;;;;;31.17;26.50;;;0.70;99.90;;;;;;5053431;28;20432;-74
2020/12/26 09:38:52;;;;;;;100.97;79.38;;;;;;;;;;5066643;28;20387;-72
2020/12/26 09:41:20;;;;;;;74.28;52.95;;;0.60;99.90;;;;;;5059667;28;20393;-72
2020/12/26 09:43:51;;;;;;;39.88;26.83;;;0.70;99.90;;;;;;5060659;28;20391;-73
2020/12/26 09:46:17;;;;;;;56.60;40.28;;;0.60;99.90;;;;;;5064569;28;20387;-72
2020/12/26 09:48:43;;;;;;;33.42;23.42;;;;;;;;;;5058497;28;20420;-73
2020/12/26 09:51:20;;;;;;;29.13;22.58;;;0.00;99.90;;;;;;5062318;28;20380;-73
2020/12/26 09:53:46;;;;;;;21.85;16.23;;;;;;;;;;5060719;28;20386;-73
2020/12/26 09:56:12;;;;;;;19.95;16.00;;;;;;;;;;5060030;28;20415;-73
2020/12/26 09:58:39;;;;;;;31.45;22.40;;;;;;;;;;5061976;28;20368;-73
2020/12/26 10:01:05;;;;;;;33.22;24.02;;;0.70;99.90;;;;;;5062786;28;20738;-74
2020/12/26 10:03:32;;;;;;;25.50;19.70;;;;;;;;;;5061465;28;20521;-73
2020/12/26 10:05:58;;;;;;;30.63;19.92;;;;;;;;;;5058737;28;20408;-73
2020/12/26 10:08:24;;;;;;;28.42;18.55;;;;;;;;;;5059067;28;20409;-73
2020/12/26 10:10:50;;;;;;;29.45;18.92;;;;;;;;;;5060259;28;20389;-73
2020/12/26 10:13:16;;;;;;;35.60;20.77;;;;;;;;;;5064613;28;20384;-73
2020/12/26 10:15:42;;;;;;;29.00;17.65;;;;;;;;;;5052414;28;20465;-73
2020/12/26 10:18:08;;;;;;;33.13;19.47;;;;;;;;;;5064924;28;20396;-73
2020/12/26 10:20:34;;;;;;;28.30;18.90;;;;;;;;;;5051731;28;20386;-73
2020/12/26 10:23:00;;;;;;;27.57;19.07;;;;;;;;;;5063298;28;20479;-73
2020/12/26 10:25:26;;;;;;;29.45;19.60;;;;;;;;;;5064033;28;20428;-73
2020/12/26 10:27:53;;;;;;;28.85;19.42;;;;;;;;;;5060448;28;20384;-73
2020/12/26 10:30:19;;;;;;;44.40;27.58;;;;;;;;;;5062035;28;20376;-73
2020/12/26 10:32:45;;;;;;;36.33;23.17;;;0.90;99.90;;;;;;5060880;28;20775;-73
2020/12/26 10:35:11;;;;;;;32.10;22.88;;;1.00;99.90;;;;;;5058587;28;20561;-73
2020/12/26 10:37:38;;;;;;;26.20;19.75;;;;;;;;;;5050203;28;20938;-73
2020/12/26 10:40:05;;;;;;;25.17;18.45;;;0.80;99.90;;;;;;5052609;28;20793;-73
2020/12/26 10:42:31;;;;;;;28.67;22.05;;;;;;;;;;5049992;28;20405;-73
2020/12/26 10:44:57;;;;;;;25.65;20.65;;;;;;;;;;5059092;28;20385;-73
2020/12/26 10:47:23;;;;;;;26.63;19.52;;;;;;;;;;5054541;28;20793;-73
2020/12/26 10:49:49;;;;;;;27.17;18.23;;;;;;;;;;5052216;28;20385;-73
2020/12/26 10:52:15;;;;;;;27.23;18.98;;;;;;;;;;5049027;28;20393;-72
2020/12/26 10:54:41;;;;;;;25.50;18.70;;;;;;;;;;5049737;28;20985;-73
2020/12/26 10:57:07;;;;;;;23.52;17.15;;;;;;;;;;5058994;28;20434;-73
2020/12/26 10:59:33;;;;;;;21.38;17.50;;;;;;;;;;5042452;28;20771;-72
2020/12/26 11:02:01;;;;;;;23.10;17.60;;;;;;;;;;5038999;28;20392;-73
2020/12/26 11:04:27;;;;;;;23.40;17.70;;;;;;;;;;5054942;28;20403;-73
2020/12/26 11:06:52;;;;;;;21.17;16.90;;;0.70;99.90;;;;;;5043229;28;20498;-74
2020/12/26 11:09:19;;;;;;;23.50;18.40;;;;;;;;;;5051916;28;20393;-73
2020/12/26 11:11:48;;;;;;;25.25;17.85;;;;;;;;;;5060673;28;20470;-73
2020/12/26 11:14:14;;;;;;;22.83;17.15;;;;;;;;;;5062514;28;20395;-73
2020/12/26 11:16:40;;;;;;;24.48;18.67;;;;;;;;;;5062710;28;20380;-74
2020/12/26 11:19:06;;;;;;;20.90;17.30;;;;;;;;;;5056356;28;20391;-74
2020/12/26 11:21:32;;;;;;;26.20;18.55;;;;;;;;;;5064908;28;20403;-74
2020/12/26 11:23:58;;;;;;;25.23;19.70;;;;;;;;;;5064538;28;20420;-74
2020/12/26 11:26:24;;;;;;;29.05;21.08;;;;;;;;;;5067984;28;20453;-74
2020/12/26 11:28:50;;;;;;;26.45;20.50;;;;;;;;;;5063940;28;20460;-74
2020/12/26 11:31:23;;;;;;;25.25;19.60;;;0.80;99.90;;;;;;5067678;28;20374;-74
2020/12/26 11:33:49;;;;;;;23.03;18.30;;;1.00;99.90;;;;;;5051943;28;20455;-72
2020/12/26 11:36:26;;;;;;;23.45;18.25;;;1.10;99.90;;;;;;5067760;28;20921;-73
2020/12/26 11:38:52;;;;;;;21.77;18.38;;;;;;;;;;5070758;28;20382;-73
2020/12/26 11:41:20;;;;;;;21.58;17.63;;;1.60;99.90;;;;;;5065687;28;20389;-72
2020/12/26 11:43:46;;;;;;;24.45;18.85;;;1.10;99.90;;;;;;5068829;28;20873;-72
2020/12/26 11:46:12;;;;;;;23.23;17.42;;;;;;;;;;5064629;28;20393;-73
2020/12/26 11:48:39;;;;;;;21.05;17.65;;;;;;;;;;5054391;28;20430;-74
2020/12/26 11:51:06;;;;;;;22.77;17.98;;;1.20;99.90;;;;;;5052788;28;20375;-73
2020/12/26 11:53:32;;;;;;;22.38;16.80;;;1.40;99.90;;;;;;5060643;28;20375;-73
2020/12/26 11:55:58;;;;;;;26.75;20.08;;;1.10;99.90;;;;;;5055719;28;20500;-73
2020/12/26 11:58:24;;;;;;;24.10;18.85;;;;;;;;;;5064974;28;20831;-74
2020/12/26 12:00:53;;;;;;;24.20;19.05;;;;;;;;;;5058196;28;20398;-73
2020/12/26 12:03:20;;;;;;;26.73;21.30;;;;;;;;;;5048892;28;20633;-73
2020/12/26 12:05:46;;;;;;;27.13;21.45;;;1.70;99.90;;;;;;5057328;28;20373;-72
2020/12/26 12:08:12;;;;;;;24.80;19.60;;;;;;;;;;5064783;28;20817;-73
2020/12/26 12:10:39;;;;;;;27.20;19.70;;;2.00;99.90;;;;;;5063291;28;20439;-73
2020/12/26 12:13:04;;;;;;;23.80;19.48;;;1.90;99.90;;;;;;5064611;28;20746;-73
2020/12/26 12:15:31;;;;;;;24.80;20.03;;;;;;;;;;5062731;28;20406;-73
2020/12/26 12:17:59;;;;;;;26.75;20.63;;;;;;;;;;5068061;28;20851;-73
2020/12/26 12:20:29;;;;;;;31.65;22.90;;;1.20;99.90;;;;;;5063009;28;20875;-73
2020/12/26 12:22:56;;;;;;;28.95;21.05;;;;;;;;;;5067064;28;20399;-74
2020/12/26 12:25:22;;;;;;;27.02;19.60;;;;;;;;;;5066600;28;20372;-73
2020/12/26 12:27:48;;;;;;;25.15;18.63;;;1.50;99.90;;;;;;5063492;28;20394;-74
2020/12/26 12:30:14;;;;;;;24.27;17.73;;;1.40;99.90;;;;;;5063741;28;20376;-73
2020/12/26 12:32:40;;;;;;;21.20;17.77;;;;;;;;;;5064156;28;20375;-73
2020/12/26 12:35:06;;;;;;;21.25;17.83;;;;;;;;;;5060946;28;20490;-72
2020/12/26 12:37:32;;;;;;;23.45;19.02;;;;;;;;;;5064374;28;20372;-73
2020/12/26 12:39:58;;;;;;;28.45;21.98;;;;;;;;;;5063506;28;20598;-76
2020/12/26 12:42:28;;;;;;;23.35;19.10;;;1.50;99.90;;;;;;5063998;28;20411;-73
2020/12/26 12:44:53;;;;;;;22.10;18.30;;;1.30;99.90;;;;;;5062741;28;20407;-74
2020/12/26 12:47:28;;;;;;;24.52;19.20;;;;;;;;;;5066371;28;20460;-73
2020/12/26 12:49:55;;;;;;;23.23;19.03;;;;;;;;;;5061273;28;20381;-76
2020/12/26 12:52:21;;;;;;;25.60;19.47;;;;;;;;;;5064953;28;20389;-74
2020/12/26 12:54:47;;;;;;;25.98;19.35;;;1.90;99.90;;;;;;5061478;28;20417;-72
2020/12/26 12:57:13;;;;;;;26.60;21.00;;;;;;;;;;5064338;28;20902;-72
2020/12/26 12:59:39;;;;;;;29.02;21.73;;;;;;;;;;5052097;28;20388;-72
2020/12/26 13:02:06;;;;;;;27.63;20.83;;;1.60;99.90;;;;;;5051826;28;20385;-73
2020/12/26 13:04:31;;;;;;;30.08;23.23;;;1.20;99.90;;;;;;5052306;28;20393;-73
2020/12/26 13:06:57;;;;;;;30.90;23.63;;;;;;;;;;5052195;28;20388;-73
2020/12/26 13:09:24;;;;;;;34.78;26.17;;;1.50;99.90;;;;;;5052158;28;20752;-73
2020/12/26 13:11:50;;;;;;;31.45;24.08;;;0.80;99.90;;;;;;5052057;28;20381;-73
2020/12/26 13:14:16;;;;;;;34.30;25.40;;;1.40;99.90;;;;;;5051713;28;20496;-74
2020/12/26 13:16:41;;;;;;;37.53;25.45;;;1.70;99.90;;;;;;5052016;28;20524;-73
2020/12/26 13:19:07;;;;;;;38.53;27.17;;;;;;;;;;5052014;28;20384;-72
2020/12/26 13:21:33;;;;;;;41.47;26.77;;;;;;;;;;5051912;28;20381;-71
2020/12/26 13:23:59;;;;;;;41.05;32.03;;;;;;;;;;5051738;28;20377;-73
2020/12/26 13:26:26;;;;;;;38.17;28.85;;;;;;;;;;5051738;28;20783;-72
2020/12/26 13:28:52;;;;;;;40.07;28.73;;;1.10;99.90;;;;;;5051876;28;20392;-73
2020/12/26 13:31:28;;;;;;;40.00;28.85;;;;;;;;;;5051786;28;20392;-73
2020/12/26 13:33:54;;;;;;;38.05;28.55;;;1.30;99.90;;;;;;5061261;28;20380;-73
2020/12/26 13:36:20;;;;;;;40.65;28.70;;;1.80;99.90;;;;;;5054400;28;20895;-73
2020/12/26 13:38:46;;;;;;;40.08;27.63;;;;;;;;;;5051599;28;20392;-73
2020/12/26 13:41:12;;;;;;;38.10;27.20;;;;;;;;;;5052688;28;20380;-73
2020/12/26 13:43:38;;;;;;;39.80;30.50;;;;;;;;;;5071387;28;20390;-73